Time;durP1;ratioP1;P1;durP2;ratioP2;P2;SDS_P1;SDS_P2;PMS_P1;PMS_P2;Temp;Humidity;BMP_temperature;BMP_pressure;BME280_temperature;BME280_humidity;BME280_pressure;Samples;Min_cycle;Max_cycle;Signal;HPM_P1;HPM_P2
2024/01/26 00:01:27;;;;;;;12.95;3.20;;;;;;;4.14;100.00;99284.22;15282020;19;20010;-79
2024/01/26 00:06:52;;;;;;;15.52;3.38;;;;;;;4.17;100.00;99285.84;15289234;19;20019;-79
2024/01/26 00:12:19;;;;;;;10.95;3.00;;;;;;;4.21;100.00;99291.84;15283537;19;20017;-81
2024/01/26 00:17:44;;;;;;;10.18;2.97;;;;;;;4.22;100.00;99299.72;15288966;19;20418;-80
2024/01/26 00:23:08;;;;;;;10.93;3.03;;;;;;;4.20;100.00;99290.97;15036545;19;5002282;-79
2024/01/26 00:28:35;;;;;;;11.02;2.90;;;;;;;4.19;100.00;99278.56;15278017;19;20083;-79
2024/01/26 00:34:00;;;;;;;10.93;3.10;;;;;;;4.20;100.00;99282.94;15280399;19;20617;-80
2024/01/26 00:39:25;;;;;;;9.68;2.90;;;;;;;4.23;100.00;99280.09;14767812;19;10000508;-80
2024/01/26 00:44:52;;;;;;;13.55;3.15;;;;;;;4.27;100.00;99267.41;15281387;19;20010;-80
2024/01/26 00:50:17;;;;;;;10.70;2.97;;;;;;;4.30;100.00;99259.22;15275636;19;20070;-79
2024/01/26 00:55:42;;;;;;;14.07;3.58;;;;;;;4.36;100.00;99255.28;15278926;19;20024;-80
2024/01/26 01:01:09;;;;;;;12.80;3.35;;;;;;;4.40;100.00;99259.47;15275690;19;20021;-81
2024/01/26 01:06:34;;;;;;;10.35;2.97;;;;;;;4.42;100.00;99250.41;15281062;19;20014;-80
2024/01/26 01:11:59;;;;;;;11.13;3.13;;;;;;;4.42;100.00;99250.41;15274107;19;20011;-79
2024/01/26 01:17:26;;;;;;;10.23;2.70;;;;;;;4.42;100.00;99257.53;15279827;19;20626;-79
2024/01/26 01:22:51;;;;;;;13.40;3.22;;;;;;;4.42;100.00;99255.75;15282882;19;20032;-80
2024/01/26 01:28:22;;;;;;;13.93;3.10;;;;;;;4.44;100.00;99252.94;15284121;19;20014;-78
2024/01/26 01:33:49;;;;;;;9.87;3.00;;;;;;;4.45;100.00;99249.34;15298803;19;20090;-78
2024/01/26 01:39:15;;;;;;;13.23;2.80;;;;;;;4.47;100.00;99234.91;15291851;19;20082;-79
2024/01/26 01:44:40;;;;;;;8.95;2.83;;;;;;;4.53;100.00;99230.16;15295243;19;20026;-80
2024/01/26 01:50:07;;;;;;;10.90;2.95;;;;;;;4.56;100.00;99229.94;15287545;19;20628;-80
2024/01/26 01:55:32;;;;;;;16.05;3.65;;;;;;;4.51;100.00;99222.25;15282848;19;20025;-80
2024/01/26 02:00:57;;;;;;;11.55;3.40;;;;;;;4.49;100.00;99221.50;15285483;19;20344;-80
2024/01/26 02:06:24;;;;;;;11.73;2.97;;;;;;;4.53;100.00;99220.31;15284776;19;20029;-80
2024/01/26 02:17:14;;;;;;;13.80;3.67;;;;;;;4.53;100.00;99214.13;15332099;19;20017;-80
2024/01/26 02:22:41;;;;;;;9.90;2.80;;;;;;;4.53;100.00;99206.97;15294216;19;20042;-80
2024/01/26 02:28:09;;;;;;;13.55;3.38;;;;;;;4.54;100.00;99195.34;15286538;19;20029;-79
2024/01/26 02:33:33;;;;;;;14.13;3.42;;;;;;;4.53;100.00;99188.28;15283526;19;20020;-80
2024/01/26 02:38:59;;;;;;;12.75;3.22;;;;;;;4.53;100.00;99177.63;15284499;19;20022;-79
2024/01/26 02:44:26;;;;;;;9.70;2.55;;;;;;;4.55;100.00;99170.38;15293808;19;20102;-79
2024/01/26 02:49:51;;;;;;;12.38;3.30;;;;;;;4.56;100.00;99172.06;15287344;19;20018;-80
2024/01/26 02:55:16;;;;;;;11.63;3.40;;;;;;;4.55;100.00;99167.69;15280363;19;20014;-78
2024/01/26 03:00:44;;;;;;;12.25;3.30;;;;;;;4.55;100.00;99165.03;15285391;19;20022;-79
2024/01/26 03:06:11;;;;;;;13.85;3.40;;;;;;;4.54;100.00;99166.00;15277263;19;20032;-79
2024/01/26 03:11:39;;;;;;;11.25;2.90;;;;;;;4.61;100.00;99172.63;15273134;19;20511;-80
2024/01/26 03:17:06;;;;;;;12.52;2.92;;;;;;;4.67;100.00;99178.50;15288552;19;20047;-80
2024/01/26 03:22:31;;;;;;;11.13;2.83;;;;;;;4.69;100.00;99181.91;15282069;19;20022;-80
2024/01/26 03:27:55;;;;;;;12.55;3.28;;;;;;;4.70;100.00;99186.31;15284999;19;20034;-80
2024/01/26 03:33:30;;;;;;;13.27;3.58;;;;;;;4.75;100.00;99174.34;15276896;19;20011;-79
2024/01/26 03:38:56;;;;;;;14.93;3.58;;;;;;;4.76;100.00;99172.56;15289720;19;20025;-79
2024/01/26 03:44:21;;;;;;;10.68;2.90;;;;;;;4.80;100.00;99178.53;15285708;19;20480;-79
2024/01/26 03:49:50;;;;;;;14.02;3.20;;;;;;;4.84;100.00;99169.31;15286564;19;20072;-78
2024/01/26 03:55:15;;;;;;;11.68;3.33;;;;;;;4.86;100.00;99162.06;15291226;19;20633;-79
2024/01/26 04:00:41;;;;;;;11.85;3.08;;;;;;;4.85;100.00;99163.91;15279779;19;20097;-79
2024/01/26 04:06:08;;;;;;;15.10;3.47;;;;;;;4.87;100.00;99175.34;15281096;19;20085;-79
2024/01/26 04:11:33;;;;;;;9.82;2.92;;;;;;;4.89;100.00;99162.69;15280218;19;20015;-78
2024/01/26 04:16:57;;;;;;;12.40;3.10;;;;;;;4.90;100.00;99175.09;15279549;19;20493;-78
2024/01/26 04:22:25;;;;;;;11.10;3.20;;;;;;;4.86;100.00;99165.59;15283898;19;20025;-79
2024/01/26 04:27:49;;;;;;;12.32;3.20;;;;;;;4.86;100.00;99168.28;15286010;19;20037;-79
2024/01/26 04:33:20;;;;;;;16.17;3.53;;;;;;;4.90;100.00;99167.09;15274143;19;20032;-78
2024/01/26 04:38:48;;;;;;;14.90;3.70;;;;;;;4.89;100.00;99160.03;15284448;19;20019;-78
2024/01/26 04:44:12;;;;;;;13.10;3.40;;;;;;;4.92;100.00;99151.81;15283607;19;20022;-77
2024/01/26 04:49:38;;;;;;;13.32;3.70;;;;;;;4.93;100.00;99153.53;15274834;19;20011;-76
2024/01/26 04:55:05;;;;;;;15.27;3.45;;;;;;;4.97;100.00;99147.97;15298790;19;20578;-79
2024/01/26 05:00:31;;;;;;;10.70;2.80;;;;;;;5.02;100.00;99144.03;15279873;19;20036;-78
2024/01/26 05:05:55;;;;;;;8.32;2.63;;;;;;;5.04;100.00;99141.22;15293698;19;20034;-79
2024/01/26 05:11:23;;;;;;;12.07;3.47;;;;;;;5.05;100.00;99134.94;15288225;19;20469;-79
2024/01/26 05:16:48;;;;;;;9.77;2.80;;;;;;;5.05;100.00;99130.47;15293077;19;20011;-78
2024/01/26 05:22:18;;;;;;;12.77;3.90;;;;;;;5.08;100.00;99122.22;15328354;19;20291;-78
2024/01/26 05:27:40;;;;;;;10.45;2.75;;;;;;;5.06;100.00;99118.78;15308180;19;20014;-78
2024/01/26 05:33:12;;;;;;;10.00;3.00;;;;;;;5.06;100.00;99110.78;15281269;19;20066;-78
2024/01/26 05:38:37;;;;;;;9.52;3.90;;;;;;;5.02;100.00;99117.31;15291630;19;20027;-80
2024/01/26 05:44:04;;;;;;;8.23;2.38;;;;;;;5.05;100.00;99113.56;15292894;19;20042;-81
2024/01/26 05:49:29;;;;;;;7.15;2.40;;;;;;;5.11;100.00;99117.63;15296600;19;20025;-81
2024/01/26 05:54:54;;;;;;;9.82;2.67;;;;;;;5.14;100.00;99096.03;15285840;19;20019;-80
2024/01/26 06:00:23;;;;;;;8.77;2.15;;;;;;;5.20;100.00;99091.09;15289629;19;20018;-81
2024/01/26 06:05:48;;;;;;;8.05;2.25;;;;;;;5.26;100.00;99097.81;15292063;19;20703;-82
2024/01/26 06:11:13;;;;;;;7.28;2.40;;;;;;;5.27;100.00;99101.34;15279931;19;20018;-82
2024/01/26 06:16:40;;;;;;;7.68;2.50;;;;;;;5.28;100.00;99108.41;15281434;19;20009;-79
2024/01/26 06:22:12;;;;;;;8.80;2.40;;;;;;;5.27;100.00;99104.00;15281645;19;20350;-80
2024/01/26 06:27:38;;;;;;;7.93;2.30;;;;;;;5.30;100.00;99107.31;15282989;19;20086;-79
2024/01/26 06:33:12;;;;;;;8.00;2.20;;;;;;;5.32;100.00;99089.34;15284934;19;20854;-79
2024/01/26 06:38:40;;;;;;;4.28;1.77;;;;;;;5.35;100.00;99083.78;15278471;19;20753;-79
2024/01/26 06:44:06;;;;;;;4.72;1.70;;;;;;;5.39;100.00;99079.06;15289440;19;20026;-78
2024/01/26 06:49:35;;;;;;;4.32;1.70;;;;;;;5.45;100.00;99078.63;15285687;19;20014;-79
2024/01/26 06:55:00;;;;;;;2.97;1.33;;;;;;;5.49;100.00;99068.56;15278575;19;20547;-79
2024/01/26 07:00:25;;;;;;;3.78;1.50;;;;;;;5.52;100.00;99069.19;15282951;19;20018;-78
2024/01/26 07:05:55;;;;;;;3.50;1.50;;;;;;;5.57;100.00;99073.34;15288505;19;20047;-80
2024/01/26 07:11:22;;;;;;;4.18;1.48;;;;;;;5.60;100.00;99070.44;15283981;19;20030;-79
2024/01/26 07:16:47;;;;;;;3.97;1.50;;;;;;;5.59;100.00;99068.72;15275929;19;20441;-78
2024/01/26 07:22:15;;;;;;;3.90;1.60;;;;;;;5.61;100.00;99072.16;15276573;19;20560;-79
2024/01/26 07:27:39;;;;;;;4.47;1.90;;;;;;;5.62;100.00;99064.03;15286231;19;20025;-78
2024/01/26 07:33:06;;;;;;;3.10;1.60;;;;;;;5.65;100.00;99062.94;15279415;19;20025;-78
2024/01/26 07:38:40;;;;;;;4.15;1.80;;;;;;;5.68;100.00;99054.69;15275022;19;20039;-56
2024/01/26 07:44:05;;;;;;;3.42;1.50;;;;;;;5.72;100.00;99050.81;15284997;19;20010;-57
2024/01/26 07:49:29;;;;;;;2.83;1.52;;;;;;;5.78;100.00;99039.66;15276874;19;20025;-58
2024/01/26 07:54:58;;;;;;;3.72;1.52;;;;;;;5.83;100.00;99039.31;15279987;19;20097;-55
2024/01/26 08:00:23;;;;;;;3.05;1.60;;;;;;;5.85;100.00;99032.88;15276230;19;20028;-63
2024/01/26 08:05:49;;;;;;;3.30;1.50;;;;;;;5.95;100.00;99032.19;15281656;19;20078;-58
2024/01/26 08:11:16;;;;;;;2.35;1.50;;;;;;;6.03;100.00;99023.59;15279127;19;20354;-57
2024/01/26 08:16:41;;;;;;;1.70;1.20;;;;;;;6.09;100.00;99007.09;15278204;19;20014;-58
2024/01/26 08:22:06;;;;;;;2.22;1.30;;;;;;;6.21;100.00;98998.13;15279532;19;20014;-57
2024/01/26 08:27:34;;;;;;;1.83;1.25;;;;;;;6.35;100.00;98975.63;15277505;19;20478;-60
2024/01/26 08:32:58;;;;;;;2.28;1.20;;;;;;;6.47;100.00;98953.25;15271154;19;20010;-59
2024/01/26 08:38:29;;;;;;;0.82;0.80;;;;;;;6.70;100.00;98939.84;15276603;19;20018;-59
2024/01/26 08:43:57;;;;;;;0.73;0.70;;;;;;;6.91;100.00;98950.66;15286085;19;20029;-60
2024/01/26 08:49:21;;;;;;;1.17;0.90;;;;;;;7.06;100.00;98956.56;15281210;19;20018;-58
2024/01/26 08:54:46;;;;;;;0.98;0.75;;;;;;;7.14;100.00;98950.59;15300771;19;20015;-59
2024/01/26 09:00:15;;;;;;;0.85;0.73;;;;;;;7.24;100.00;98945.31;15318856;19;20521;-60
2024/01/26 09:05:40;;;;;;;1.05;0.60;;;;;;;7.39;100.00;98933.31;15283272;19;20021;-59
2024/01/26 09:11:04;;;;;;;0.80;0.80;;;;;;;7.58;100.00;98934.47;15286734;19;20109;-59
2024/01/26 09:16:35;;;;;;;0.47;0.47;;;;;;;7.78;100.00;98922.03;15289119;19;20058;-59
2024/01/26 09:21:59;;;;;;;1.15;0.50;;;;;;;7.95;100.00;98920.56;15282230;19;20125;-60
2024/01/26 09:27:24;;;;;;;0.75;0.40;;;;;;;7.99;100.00;98913.97;15289202;19;20071;-57
2024/01/26 09:32:51;;;;;;;0.70;0.50;;;;;;;8.08;100.00;98895.38;15291021;19;20021;-56
2024/01/26 09:38:18;;;;;;;0.77;0.50;;;;;;;8.22;100.00;98868.16;15282614;19;20022;-54
2024/01/26 09:43:42;;;;;;;0.50;0.50;;;;;;;8.46;100.00;98873.22;15288563;19;20014;-55
2024/01/26 09:49:10;;;;;;;0.77;0.60;;;;;;;8.70;100.00;98857.75;15279861;19;20052;-55
2024/01/26 09:54:35;;;;;;;0.82;0.70;;;;;;;8.80;100.00;98831.75;15286436;19;20014;-51
2024/01/26 10:00:00;;;;;;;0.60;0.57;;;;;;;8.86;100.00;98836.56;15283703;19;20018;-54
2024/01/26 10:05:27;;;;;;;1.15;0.70;;;;;;;8.92;100.00;98841.38;15292661;19;20024;-53
2024/01/26 10:10:52;;;;;;;1.13;0.70;;;;;;;8.93;100.00;98840.38;15279726;19;20416;-51
2024/01/26 10:16:18;;;;;;;1.20;0.68;;;;;;;8.97;100.00;98816.75;15285572;19;20027;-51
2024/01/26 10:21:46;;;;;;;0.90;0.70;;;;;;;9.08;100.00;98796.97;15283186;19;20018;-60
2024/01/26 10:27:12;;;;;;;1.50;0.88;;;;;;;9.08;100.00;98770.91;15289724;19;20034;-61
2024/01/26 10:32:38;;;;;;;0.93;0.60;;;;;;;9.15;100.00;98748.84;15278364;19;20014;-60
2024/01/26 10:38:17;;;;;;;0.60;0.60;;;;;;;9.22;100.00;98752.66;15284087;19;20018;-59
2024/01/26 10:43:47;;;;;;;0.65;0.60;;;;;;;9.27;100.00;98741.47;15279116;19;20035;-59
2024/01/26 10:49:14;;;;;;;0.87;0.70;;;;;;;9.32;100.00;98728.44;15286418;19;20013;-60
2024/01/26 10:54:42;;;;;;;0.63;0.63;;;;;;;9.38;100.00;98701.81;15287522;19;20089;-59
2024/01/26 11:00:09;;;;;;;0.50;0.50;;;;;;;9.42;100.00;98707.75;15277443;19;20027;-59
2024/01/26 11:05:35;;;;;;;0.40;0.40;;;;;;;9.45;100.00;98706.59;15286282;19;20121;-58
2024/01/26 11:11:03;;;;;;;0.40;0.40;;;;;;;9.40;100.00;98707.03;15281970;19;20496;-60
2024/01/26 11:16:33;;;;;;;1.10;0.60;;;;;;;9.13;100.00;98707.81;15278475;19;20014;-60
2024/01/26 11:21:57;;;;;;;0.45;0.45;;;;;;;8.91;100.00;98732.19;15277430;19;20011;-60
2024/01/26 11:27:25;;;;;;;0.55;0.30;;;;;;;8.79;100.00;98719.88;15281656;19;20014;-61
2024/01/26 11:32:51;;;;;;;0.65;0.47;;;;;;;8.73;100.00;98740.09;15282575;19;20078;-60
2024/01/26 11:38:17;;;;;;;0.80;0.50;;;;;;;8.69;100.00;98736.03;15281478;19;20019;-61
2024/01/26 11:43:52;;;;;;;0.75;0.60;;;;;;;8.63;100.00;98734.75;15283814;19;20029;-59
2024/01/26 11:49:17;;;;;;;0.65;0.63;;;;;;;8.59;100.00;98730.66;15274998;19;20010;-61
2024/01/26 11:54:43;;;;;;;0.60;0.60;;;;;;;8.57;100.00;98713.81;15282783;19;20085;-61
2024/01/26 12:00:13;;;;;;;1.02;0.80;;;;;;;8.55;100.00;98715.78;15277097;19;20017;-60
2024/01/26 12:05:38;;;;;;;1.02;0.80;;;;;;;8.55;100.00;98717.66;15279042;19;20035;-60
2024/01/26 12:11:04;;;;;;;0.75;0.75;;;;;;;8.56;100.00;98722.03;15275922;19;20081;-60
2024/01/26 12:16:34;;;;;;;0.75;0.70;;;;;;;8.58;100.00;98733.47;15280428;19;20020;-61
2024/01/26 12:21:59;;;;;;;0.70;0.68;;;;;;;8.61;100.00;98717.94;15272273;19;20017;-61
2024/01/26 12:27:23;;;;;;;0.88;0.73;;;;;;;8.71;100.00;98727.81;15280641;19;20022;-61
2024/01/26 12:32:51;;;;;;;1.25;0.60;;;;;;;8.77;100.00;98714.66;15281198;19;20015;-61
2024/01/26 12:38:22;;;;;;;0.57;0.52;;;;;;;8.79;100.00;98691.19;15275825;19;20014;-61
2024/01/26 12:43:48;;;;;;;1.23;0.60;;;;;;;8.86;100.00;98696.84;15276943;19;20070;-60
2024/01/26 12:49:15;;;;;;;0.73;0.60;;;;;;;8.96;100.00;98698.66;15271183;19;20457;-60
2024/01/26 12:54:41;;;;;;;1.40;0.60;;;;;;;9.01;100.00;98707.13;15273823;19;20115;-58
2024/01/26 13:00:05;;;;;;;0.50;0.50;;;;;;;9.04;100.00;98688.03;15269781;19;20019;-60
2024/01/26 13:05:33;;;;;;;0.30;0.30;;;;;;;9.08;100.00;98674.16;15276881;19;20681;-61
2024/01/26 13:10:58;;;;;;;0.55;0.40;;;;;;;9.18;100.00;98679.50;15275893;19;20018;-60
2024/01/26 13:16:23;;;;;;;1.17;0.43;;;;;;;9.21;100.00;98671.16;15276481;19;20479;-60
2024/01/26 13:21:50;;;;;;;1.30;0.47;;;;;;;9.22;100.00;98655.88;15274021;19;20011;-62
2024/01/26 13:27:15;;;;;;;0.40;0.40;;;;;;;9.24;100.00;98654.72;15282704;19;20353;-61
2024/01/26 13:32:43;;;;;;;0.20;0.20;;;;;;;9.31;100.00;98656.84;15291421;19;20523;-61
2024/01/26 13:38:17;;;;;;;0.30;0.30;;;;;;;9.50;100.00;98639.78;15287888;19;20021;-60
2024/01/26 13:43:44;;;;;;;0.22;0.10;;;;;;;9.91;100.00;98648.31;15289903;19;20346;-59
2024/01/26 13:49:08;;;;;;;0.20;0.20;;;;;;;10.24;100.00;98628.97;15287676;19;20013;-61
2024/01/26 13:54:36;;;;;;;0.10;0.10;;;;;;;10.13;100.00;98603.97;15289882;19;20019;-61
2024/01/26 14:00:00;;;;;;;0.17;0.17;;;;;;;10.01;100.00;98591.72;15284274;19;20066;-59
2024/01/26 14:05:40;;;;;;;0.80;0.15;;;;;;;9.92;100.00;98596.19;15291572;19;20025;-60
2024/01/26 14:11:07;;;;;;;0.10;0.10;;;;;;;9.87;100.00;98588.56;15280047;19;20523;-60
2024/01/26 14:16:32;;;;;;;0.10;0.10;;;;;;;9.85;100.00;98578.97;15286786;19;20086;-58
2024/01/26 14:21:56;;;;;;;0.10;0.10;;;;;;;9.88;100.00;98594.78;15282506;19;20467;-59
2024/01/26 14:27:24;;;;;;;1.00;0.25;;;;;;;9.83;100.00;98600.63;15280011;19;20010;-62
2024/01/26 14:32:48;;;;;;;0.40;0.40;;;;;;;9.77;100.00;98609.31;15287038;19;20349;-60
2024/01/26 14:38:21;;;;;;;0.20;0.20;;;;;;;9.69;100.00;98623.53;15283815;19;20694;-59
2024/01/26 14:43:49;;;;;;;1.25;0.30;;;;;;;9.62;100.00;98640.41;15286223;19;20407;-58
2024/01/26 14:49:13;;;;;;;0.98;0.30;;;;;;;9.55;100.00;98670.59;15281488;19;20021;-60
2024/01/26 14:54:39;;;;;;;0.82;0.22;;;;;;;9.58;100.00;98679.38;15279587;19;20017;-61
2024/01/26 15:00:08;;;;;;;2.33;0.38;;;;;;;8.58;100.00;98782.66;15275056;19;20836;-63
2024/01/26 15:05:33;;;;;;;0.90;0.30;;;;;;;7.32;100.00;98765.97;15283639;19;20014;-66
2024/01/26 15:10:58;;;;;;;1.15;0.30;;;;;;;6.94;100.00;98778.09;15281082;19;20081;-63
2024/01/26 15:16:28;;;;;;;13.50;8.60;;;;;;;6.88;100.00;98818.81;15283427;19;20420;-63
2024/01/26 15:21:56;;;;;;;10.23;6.70;;;;;;;6.87;100.00;98839.38;15274445;19;20011;-64
2024/01/26 15:27:24;;;;;;;1.17;0.30;;;;;;;6.82;100.00;98870.19;15280937;19;20463;-64
2024/01/26 15:32:51;;;;;;;1.40;0.28;;;;;;;6.81;100.00;98873.84;15269643;19;20018;-64
2024/01/26 15:38:16;;;;;;;1.50;0.82;;;;;;;6.78;100.00;98881.16;15249848;19;20036;-64
2024/01/26 15:43:42;;;;;;;2.15;1.23;;;;;;;6.74;100.00;98881.53;15280283;19;20619;-64
2024/01/26 15:49:10;;;;;;;5.40;3.20;;;;;;;6.69;100.00;98895.28;15279307;19;20464;-63
2024/01/26 15:54:36;;;;;;;13.38;12.00;;;;;;;6.64;100.00;98905.53;15279479;19;20025;-64
2024/01/26 16:00:02;;;;;;;11.38;8.93;;;;;;;6.53;100.00;98919.78;15278777;19;20045;-63
2024/01/26 16:05:30;;;;;;;0.90;0.60;;;;;;;6.42;100.00;98928.66;15273635;19;20006;-63
2024/01/26 16:10:56;;;;;;;1.77;0.47;;;;;;;6.44;100.00;98925.88;15276655;19;20011;-63
2024/01/26 16:16:22;;;;;;;3.70;2.83;;;;;;;6.44;100.00;98958.84;15280477;19;20023;-63
2024/01/26 16:21:50;;;;;;;5.22;3.35;;;;;;;6.39;100.00;98985.13;15272839;19;20086;-63
2024/01/26 16:27:15;;;;;;;7.00;5.10;;;;;;;6.35;100.00;99005.06;15277690;19;20037;-61
2024/01/26 16:32:40;;;;;;;3.60;0.80;;;;;;;6.28;100.00;98996.66;15266577;19;20034;-61
2024/01/26 16:38:08;;;;;;;4.18;0.77;;;;;;;6.20;100.00;98992.88;15270766;19;20066;-60
2024/01/26 16:43:33;;;;;;;4.72;0.93;;;;;;;6.10;100.00;99008.81;15276316;19;20014;-61
2024/01/26 16:48:59;;;;;;;3.00;0.75;;;;;;;6.03;100.00;99039.66;15273105;19;20023;-61
2024/01/26 16:54:29;;;;;;;3.40;1.45;;;;;;;5.94;100.00;99049.22;15278783;19;20018;-62
2024/01/26 16:59:54;;;;;;;4.20;1.00;;;;;;;5.88;100.00;99060.38;15279377;19;20019;-61
2024/01/26 17:05:25;;;;;;;3.97;0.88;;;;;;;5.87;100.00;99072.91;15292279;19;20048;-61
2024/01/26 17:10:52;;;;;;;3.77;0.90;;;;;;;5.83;100.00;99056.22;15280561;19;20058;-61
2024/01/26 17:16:17;;;;;;;4.70;0.90;;;;;;;5.81;100.00;99073.34;15284656;19;20022;-61
2024/01/26 17:21:43;;;;;;;3.60;0.90;;;;;;;5.83;100.00;99090.13;15282507;19;20018;-60
2024/01/26 17:27:11;;;;;;;4.60;1.30;;;;;;;5.79;100.00;99110.91;15291089;19;20021;-60
2024/01/26 17:32:38;;;;;;;4.53;1.00;;;;;;;5.79;100.00;99132.28;15279636;19;20384;-60
2024/01/26 17:38:03;;;;;;;3.30;1.15;;;;;;;5.79;100.00;99161.72;15283149;19;20065;-61
2024/01/26 17:43:31;;;;;;;3.28;1.05;;;;;;;5.78;100.00;99141.28;15290097;19;20078;-60
2024/01/26 17:48:56;;;;;;;4.30;1.40;;;;;;;5.71;100.00;99148.03;15288351;19;20510;-59
2024/01/26 17:54:23;;;;;;;5.38;1.15;;;;;;;5.60;100.00;99166.66;15288832;19;20039;-61
2024/01/26 17:59:51;;;;;;;3.22;1.00;;;;;;;5.53;100.00;99175.16;15285315;19;20050;-62
2024/01/26 18:05:19;;;;;;;6.25;1.30;;;;;;;5.49;100.00;99176.31;15287326;19;20030;-58
2024/01/26 18:10:45;;;;;;;6.35;2.88;;;;;;;5.51;100.00;99233.19;15284483;19;20021;-60
2024/01/26 18:16:12;;;;;;;2.50;0.77;;;;;;;5.51;100.00;99230.53;15282387;19;20018;-60
2024/01/26 18:21:38;;;;;;;2.92;0.88;;;;;;;5.53;100.00;99241.97;15284650;19;20486;-59
2024/01/26 18:27:03;;;;;;;4.10;0.70;;;;;;;5.51;100.00;99269.78;15286774;19;20026;-59
2024/01/26 18:32:31;;;;;;;2.80;0.77;;;;;;;5.53;100.00;99283.88;15277409;19;20010;-59
2024/01/26 18:37:55;;;;;;;2.83;0.77;;;;;;;5.55;100.00;99277.47;15280407;19;20487;-59
2024/01/26 18:43:21;;;;;;;2.67;0.70;;;;;;;5.54;100.00;99317.66;15280774;19;20395;-59
2024/01/26 18:48:48;;;;;;;3.60;1.00;;;;;;;5.51;100.00;99320.56;15278996;19;20081;-60
2024/01/26 18:54:14;;;;;;;3.58;0.70;;;;;;;5.48;100.00;99356.34;15280850;19;20014;-59
2024/01/26 18:59:39;;;;;;;6.95;1.00;;;;;;;5.38;100.00;99355.28;15276411;19;20110;-59
2024/01/26 19:05:07;;;;;;;3.17;0.80;;;;;;;5.29;100.00;99378.16;15276683;19;20612;-58
2024/01/26 19:10:32;;;;;;;3.65;0.80;;;;;;;5.19;100.00;99385.06;15271560;19;20090;-55
2024/01/26 19:16:00;;;;;;;2.58;0.70;;;;;;;5.06;100.00;99382.38;15279146;19;20035;-60
2024/01/26 19:21:27;;;;;;;3.60;0.85;;;;;;;4.96;100.00;99399.97;15268663;19;20018;-60
2024/01/26 19:26:52;;;;;;;3.10;0.80;;;;;;;4.81;100.00;99405.34;15278373;19;20018;-62
2024/01/26 19:32:16;;;;;;;3.17;0.90;;;;;;;4.75;100.00;99432.47;15276795;19;20022;-59
2024/01/26 19:37:44;;;;;;;3.55;0.90;;;;;;;4.78;100.00;99458.94;15277540;19;20022;-59
2024/01/26 19:43:08;;;;;;;3.65;0.95;;;;;;;4.81;100.00;99473.94;15273363;19;20495;-60
2024/01/26 19:48:33;;;;;;;2.22;0.70;;;;;;;4.82;100.00;99487.16;15276758;19;20050;-59
2024/01/26 19:54:04;;;;;;;5.68;1.00;;;;;;;4.78;100.00;99512.34;15275845;19;20018;-59
2024/01/26 19:59:30;;;;;;;4.25;1.15;;;;;;;4.73;100.00;99531.31;15275466;19;20255;-59
2024/01/26 20:04:56;;;;;;;3.15;1.00;;;;;;;4.62;100.00;99526.66;15271097;19;20467;-61
2024/01/26 20:10:24;;;;;;;3.17;1.00;;;;;;;4.46;100.00;99545.44;15279952;19;20031;-59
2024/01/26 20:15:50;;;;;;;4.70;1.10;;;;;;;4.36;100.00;99554.09;15278431;19;20029;-59
2024/01/26 20:21:16;;;;;;;23.90;15.07;;;;;;;4.24;100.00;99574.38;15273055;19;20436;-59
2024/01/26 20:26:44;;;;;;;3.65;1.20;;;;;;;4.16;100.00;99573.03;15277046;19;20010;-58
2024/01/26 20:32:09;;;;;;;4.50;1.00;;;;;;;4.11;100.00;99590.25;15271350;19;20074;-60
2024/01/26 20:37:34;;;;;;;3.22;1.00;;;;;;;4.07;100.00;99586.91;15265225;19;20015;-59
2024/01/26 20:43:03;;;;;;;3.13;0.85;;;;;;;4.06;100.00;99603.03;15287568;19;20054;-59
2024/01/26 20:48:28;;;;;;;4.22;1.20;;;;;;;4.08;100.00;99614.44;15294370;19;20026;-59
2024/01/26 20:53:53;;;;;;;4.78;1.00;;;;;;;4.11;100.00;99631.13;15291129;19;20090;-60
2024/01/26 20:59:21;;;;;;;4.03;0.98;;;;;;;4.15;100.00;99631.81;15288075;19;20082;-59
2024/01/26 21:04:46;;;;;;;3.08;0.75;;;;;;;4.16;100.00;99649.53;15296792;19;20086;-60
2024/01/26 21:10:12;;;;;;;4.00;1.02;;;;;;;4.17;100.00;99656.59;15293545;19;20019;-58
2024/01/26 21:15:40;;;;;;;5.53;1.05;;;;;;;4.12;100.00;99666.66;15295576;19;20018;-59
2024/01/26 21:21:04;;;;;;;5.55;1.00;;;;;;;4.12;100.00;99664.00;15291266;19;20019;-58
2024/01/26 21:26:30;;;;;;;4.30;1.20;;;;;;;3.97;100.00;99655.94;15289317;19;20022;-59
2024/01/26 21:31:58;;;;;;;5.75;1.10;;;;;;;3.98;100.00;99689.66;15279796;19;20021;-55
2024/01/26 21:37:23;;;;;;;5.85;1.20;;;;;;;4.08;100.00;99698.00;15281864;19;20020;-57
2024/01/26 21:42:49;;;;;;;4.88;1.30;;;;;;;4.19;100.00;99708.03;15276615;19;20090;-57
2024/01/26 21:48:21;;;;;;;3.83;1.30;;;;;;;4.24;100.00;99715.75;15285130;19;20021;-58
2024/01/26 21:53:47;;;;;;;3.17;1.00;;;;;;;4.30;100.00;99697.59;15298378;19;20028;-57
2024/01/26 21:59:11;;;;;;;6.18;1.30;;;;;;;4.37;100.00;99702.56;15281839;19;20363;-58
2024/01/26 22:04:39;;;;;;;4.70;1.05;;;;;;;4.40;100.00;99711.25;15286759;19;20032;-57
2024/01/26 22:10:04;;;;;;;3.35;0.80;;;;;;;4.44;100.00;99722.59;15284439;19;20686;-56
2024/01/26 22:15:30;;;;;;;4.60;1.00;;;;;;;4.44;100.00;99695.91;15288675;19;20430;-55
2024/01/26 22:20:57;;;;;;;4.60;0.98;;;;;;;4.44;100.00;99691.44;15284241;19;20011;-57
2024/01/26 22:26:24;;;;;;;4.03;0.82;;;;;;;4.40;100.00;99713.06;15287148;19;20030;-57
2024/01/26 22:31:49;;;;;;;3.25;0.90;;;;;;;4.36;100.00;99696.34;15280295;19;20017;-58
2024/01/26 22:37:16;;;;;;;2.55;0.90;;;;;;;4.27;100.00;99695.13;15286519;19;20045;-58
2024/01/26 22:42:50;;;;;;;3.47;0.80;;;;;;;4.18;100.00;99698.28;15276446;19;20467;-57
2024/01/26 22:48:16;;;;;;;3.72;1.08;;;;;;;4.01;100.00;99684.16;15280753;19;20022;-58
2024/01/26 22:53:43;;;;;;;3.75;1.10;;;;;;;3.89;100.00;99710.63;15282050;19;20028;-56
2024/01/26 22:59:08;;;;;;;3.90;1.15;;;;;;;3.81;100.00;99703.09;15284669;19;20010;-55
2024/01/26 23:04:33;;;;;;;2.47;0.77;;;;;;;3.84;100.00;99702.91;15275962;19;20010;-56
2024/01/26 23:10:00;;;;;;;4.68;0.90;;;;;;;3.82;100.00;99720.81;15282513;19;20022;-58
2024/01/26 23:15:26;;;;;;;5.13;0.98;;;;;;;3.81;100.00;99727.09;15283348;19;20037;-56
2024/01/26 23:20:51;;;;;;;4.50;1.10;;;;;;;3.76;100.00;99716.69;15280851;19;20487;-55
2024/01/26 23:26:19;;;;;;;4.75;1.10;;;;;;;3.74;100.00;99723.91;15283040;19;20041;-53
2024/01/26 23:31:44;;;;;;;5.57;1.10;;;;;;;3.67;100.00;99726.03;15280508;19;20363;-54
2024/01/26 23:37:09;;;;;;;7.38;1.20;;;;;;;3.65;100.00;99743.03;15274999;19;20501;-56
2024/01/26 23:42:44;;;;;;;3.58;1.00;;;;;;;3.63;100.00;99732.47;15279713;19;20089;-57
2024/01/26 23:48:10;;;;;;;5.75;1.10;;;;;;;3.65;100.00;99735.03;15278953;19;20038;-55
2024/01/26 23:53:35;;;;;;;5.43;1.30;;;;;;;3.70;100.00;99722.34;15274254;19;20392;-58
2024/01/26 23:59:03;;;;;;;7.18;1.30;;;;;;;3.69;100.00;99726.81;15275276;19;20478;-54
